createdAt,value
2022-12-08T04:42:39.156Z,19.37
2022-12-08T04:45:42.965Z,18.42
2022-12-08T04:48:45.506Z,19.80
2022-12-08T04:51:49.026Z,19.70
2022-12-08T04:54:51.527Z,20.02
2022-12-08T04:57:54.384Z,18.50
2022-12-08T05:00:56.986Z,19.85
2022-12-08T05:03:59.787Z,21.30
2022-12-08T05:07:02.391Z,19.77
2022-12-08T05:10:06.188Z,20.15
2022-12-08T05:13:09.836Z,21.12
2022-12-08T05:16:14.557Z,19.48
2022-12-08T05:19:18.167Z,19.73
2022-12-08T05:22:20.973Z,20.58
2022-12-08T05:25:23.457Z,18.42
2022-12-08T05:28:43.312Z,19.58
2022-12-08T05:31:47.131Z,20.20
2022-12-08T05:34:49.990Z,19.25
2022-12-08T05:37:53.978Z,18.75
2022-12-08T05:40:56.868Z,19.80
2022-12-08T05:43:59.322Z,19.58
2022-12-08T05:47:02.145Z,19.15
2022-12-08T05:50:06.106Z,22.52
2022-12-08T05:53:09.258Z,21.02
2022-12-08T05:56:12.349Z,21.42
2022-12-08T05:59:16.619Z,20.85
2022-12-08T06:02:19.269Z,21.92
2022-12-08T06:05:22.242Z,19.33
2022-12-08T06:08:24.918Z,20.10
2022-12-08T06:11:30.327Z,20.80
2022-12-08T06:14:32.841Z,19.35
2022-12-08T06:17:35.916Z,19.45
2022-12-08T06:20:41.194Z,17.95
2022-12-08T06:23:44.677Z,20.33
2022-12-08T06:26:47.234Z,19.35
2022-12-08T06:29:50.007Z,20.00
2022-12-08T06:32:52.893Z,19.73
2022-12-08T06:36:05.309Z,19.30
2022-12-08T06:39:09.813Z,17.98
2022-12-08T06:42:31.258Z,20.02
2022-12-08T06:45:33.870Z,18.80
2022-12-08T06:48:36.773Z,18.80
2022-12-08T06:51:39.902Z,19.42
2022-12-08T06:54:42.726Z,19.65
2022-12-08T06:57:45.281Z,20.23
2022-12-08T07:00:48.216Z,21.30
2022-12-08T07:03:50.847Z,19.77
2022-12-08T07:06:53.731Z,20.10
2022-12-08T07:09:56.619Z,20.27
2022-12-08T07:12:59.511Z,19.17
2022-12-08T07:16:05.639Z,19.33
2022-12-08T07:19:08.378Z,20.05
2022-12-08T07:22:11.163Z,18.58
2022-12-08T07:25:13.917Z,18.75
2022-12-08T07:28:16.634Z,20.05
2022-12-08T07:31:24.900Z,19.17
2022-12-08T07:34:27.968Z,19.70
2022-12-08T07:37:37.024Z,19.67
2022-12-08T07:40:41.630Z,18.00
2022-12-08T07:43:45.022Z,17.85
2022-12-08T07:46:47.547Z,18.98
2022-12-08T07:49:50.463Z,18.95
2022-12-08T07:52:53.143Z,18.30
2022-12-08T07:55:56.021Z,19.80
2022-12-08T07:58:58.701Z,22.73
2022-12-08T08:02:22.988Z,26.77
2022-12-08T08:05:24.568Z,26.00
2022-12-08T08:08:27.193Z,24.90
2022-12-08T08:11:30.071Z,23.15
2022-12-08T08:14:32.577Z,24.77
2022-12-08T08:17:36.908Z,24.45
2022-12-08T08:20:43.201Z,22.58
2022-12-08T08:23:46.076Z,21.80
2022-12-08T08:26:50.738Z,22.52
2022-12-08T08:29:53.934Z,22.35
2022-12-08T08:32:56.997Z,21.73
2022-12-08T08:36:00.023Z,20.85
2022-12-08T08:39:03.766Z,20.83
2022-12-08T08:42:06.527Z,20.45
2022-12-08T08:45:09.561Z,21.90
2022-12-08T08:48:12.397Z,22.37
2022-12-08T08:51:15.471Z,21.60
2022-12-08T08:54:18.321Z,21.30
2022-12-08T08:57:25.541Z,22.20
2022-12-08T09:00:29.295Z,22.17
2022-12-08T09:03:31.934Z,21.75
2022-12-08T09:06:34.798Z,23.52
2022-12-08T09:09:38.465Z,23.23
2022-12-08T09:12:41.467Z,20.23
2022-12-08T09:15:44.064Z,19.95
2022-12-08T09:18:49.677Z,20.58
2022-12-08T09:21:52.257Z,21.45
2022-12-08T09:24:55.119Z,20.88
2022-12-08T09:27:57.543Z,21.60
2022-12-08T09:31:01.825Z,20.65
2022-12-08T09:34:05.335Z,20.88
2022-12-08T09:37:08.160Z,21.67
2022-12-08T09:40:18.583Z,21.25
2022-12-08T09:43:43.344Z,22.17
2022-12-08T09:46:48.475Z,20.80
2022-12-08T09:49:55.888Z,21.12
2022-12-08T09:52:58.420Z,20.37
2022-12-08T09:56:06.902Z,21.12
2022-12-08T09:59:09.329Z,21.60
2022-12-08T10:02:28.293Z,19.98
2022-12-08T10:05:37.758Z,20.58
2022-12-08T10:08:47.989Z,17.80
2022-12-08T10:12:13.743Z,19.30
2022-12-08T10:15:57.540Z,19.00
2022-12-08T10:19:15.616Z,16.55
2022-12-08T10:22:24.768Z,19.00
2022-12-08T10:25:41.430Z,19.73
2022-12-08T10:28:46.759Z,18.45
2022-12-08T10:31:49.654Z,20.52
2022-12-08T10:35:02.610Z,19.65
2022-12-08T10:38:06.521Z,19.55
2022-12-08T10:41:12.076Z,20.02
2022-12-08T10:44:16.838Z,21.27
2022-12-08T10:47:22.688Z,20.88
2022-12-08T10:50:37.024Z,22.60
2022-12-08T10:53:46.044Z,23.30
2022-12-08T10:56:57.693Z,26.17
2022-12-08T11:00:00.291Z,21.25
2022-12-08T11:03:05.171Z,20.00
2022-12-08T11:06:25.475Z,19.27
2022-12-08T11:09:37.237Z,18.58
2022-12-08T11:12:44.138Z,18.73
2022-12-08T11:15:47.407Z,19.50
2022-12-08T11:18:56.983Z,17.58
2022-12-08T11:21:59.807Z,17.80
2022-12-08T11:25:17.599Z,18.67
2022-12-08T11:28:24.353Z,18.70
2022-12-08T11:31:49.858Z,19.25
2022-12-08T11:35:04.493Z,18.08
2022-12-08T11:38:21.680Z,16.00
2022-12-08T11:41:32.098Z,15.55
2022-12-08T11:44:50.435Z,15.68
2022-12-08T11:48:11.671Z,13.70
2022-12-08T11:51:29.749Z,12.37
2022-12-08T11:54:45.330Z,12.23
2022-12-08T11:57:48.858Z,12.18
2022-12-08T12:00:51.838Z,12.27
2022-12-08T12:04:14.092Z,10.73
2022-12-08T12:07:26.196Z,11.25
2022-12-08T12:11:36.990Z,12.27
2022-12-08T12:15:05.269Z,10.93
2022-12-08T12:18:46.552Z,11.77
2022-12-08T12:21:55.069Z,10.70
2022-12-08T12:24:57.990Z,11.27
2022-12-08T12:28:05.364Z,11.75
2022-12-08T12:31:18.441Z,10.77
2022-12-08T12:34:25.730Z,9.82
2022-12-08T12:37:41.756Z,9.25
2022-12-08T12:40:44.623Z,9.75
2022-12-08T12:44:12.421Z,9.43
2022-12-08T12:47:56.666Z,9.32
2022-12-08T12:50:59.922Z,9.70
2022-12-08T12:54:21.006Z,9.30
2022-12-08T12:57:33.856Z,8.55
2022-12-08T13:00:37.359Z,9.38
2022-12-08T13:04:04.221Z,9.25
2022-12-08T13:07:06.894Z,9.15
2022-12-08T13:10:09.686Z,8.45
2022-12-08T13:13:12.704Z,8.85
2022-12-08T13:16:22.613Z,15.95
2022-12-08T13:19:25.796Z,16.95
2022-12-08T13:22:47.115Z,18.35
2022-12-08T13:25:54.001Z,19.20
2022-12-08T13:29:01.422Z,18.60
2022-12-08T13:32:24.937Z,18.23
2022-12-08T13:35:28.368Z,17.87
2022-12-08T13:38:35.568Z,15.32
2022-12-08T13:41:44.130Z,12.00
2022-12-08T13:49:09.952Z,12.10
2022-12-08T13:58:44.524Z,10.48
2022-12-08T14:01:49.800Z,11.32
2022-12-08T14:08:59.338Z,11.15
2022-12-08T14:12:06.961Z,11.85
2022-12-08T14:15:14.343Z,11.12
2022-12-08T14:18:26.508Z,10.23
2022-12-08T14:21:34.443Z,10.25
2022-12-08T14:27:42.019Z,11.07
2022-12-08T14:30:45.114Z,12.70
2022-12-08T14:33:50.546Z,13.43
2022-12-08T14:36:56.163Z,15.82
2022-12-08T14:40:02.681Z,15.13
2022-12-08T14:43:12.426Z,14.38
2022-12-08T14:46:23.166Z,15.30
2022-12-08T14:49:34.682Z,15.52
2022-12-08T14:52:44.114Z,15.85
2022-12-08T14:55:48.494Z,14.57
2022-12-08T14:59:06.622Z,13.98
2022-12-08T15:02:25.582Z,14.43
2022-12-08T15:05:31.970Z,14.20
2022-12-08T15:08:51.222Z,13.50
2022-12-08T15:12:26.835Z,13.70
2022-12-08T15:15:31.764Z,14.10
2022-12-08T15:18:40.983Z,14.13
2022-12-08T15:21:45.497Z,14.77
2022-12-08T15:24:48.103Z,14.65
2022-12-08T15:27:53.156Z,14.35
2022-12-08T15:30:56.357Z,13.50
2022-12-08T15:33:59.215Z,12.55
2022-12-08T15:37:03.992Z,13.32
2022-12-08T15:40:17.172Z,13.27
2022-12-08T15:43:20.344Z,13.52
2022-12-08T15:46:23.313Z,13.25
2022-12-08T15:49:26.878Z,13.00
2022-12-08T15:52:29.672Z,13.07
2022-12-08T15:55:38.487Z,13.98
2022-12-08T15:58:58.682Z,13.55
2022-12-08T16:02:17.912Z,12.35
2022-12-08T16:05:46.565Z,14.40
2022-12-08T16:09:06.140Z,13.88
2022-12-08T16:16:11.085Z,13.55
2022-12-08T16:19:14.662Z,13.27
2022-12-08T16:26:16.216Z,13.77
2022-12-08T16:29:06.384Z,13.48
2022-12-08T16:32:10.053Z,13.30
2022-12-08T16:35:14.497Z,13.62
2022-12-08T16:38:18.785Z,14.95
2022-12-08T16:41:39.903Z,13.30
2022-12-08T16:44:43.126Z,12.55
2022-12-08T16:47:48.634Z,13.05
2022-12-08T16:50:51.533Z,12.98
2022-12-08T16:53:54.444Z,13.45
2022-12-08T16:56:57.333Z,13.10
2022-12-08T16:59:59.971Z,12.80
